Aquarius — ZGGD3 — position and weather

sailwx.info

Track history (hours):
 
Tides and Currents Weather Stations Pressure Air Temp Water Temp Dewpoint Dewpoint Depression Visibility Wind Speed Wind Dir Waves Ship Positions

Aquarius

Last reported at 2018-Apr-17 11:16 UTC. Time now 2018-Apr-20 02:48 UTC.
Position N 26°45' W 080°03'.

Length 92 m; draft 4.2 m.

Type: Pleasure craft. MMSI: 319107400.

Date/timePositionNaut miles runAvg speedWind from/ knotsBaromVisibWave heightAir tempDewpointWater temp
2018-Apr-17 11:16N 26°45' W 080°03'  
2018-Apr-10 21:37N 26°45' W 080°03'10410.7
2018-Apr-10 11:55N 26°04' W 078°16'512.2
2018-Apr-10 11:30N 26°02' W 078°11'611.7
2018-Apr-10 11:00N 25°60' W 078°05'611.1
2018-Apr-10 10:30N 25°57' W 077°59'43 9.9
2018-Apr-10 06:07N 25°21' W 077°34'310.6
2018-Apr-10 05:52N 25°18' W 077°34'411.0
2018-Apr-10 05:30N 25°14' W 077°34'  
Track history (hours):
 
Tides and Currents Weather Stations Pressure Air Temp Water Temp Dewpoint Dewpoint Depression Visibility Wind Speed Wind Dir Waves Ship Positions

Aquarius

Last reported at 2018-Apr-17 11:16 UTC. Time now 2018-Apr-20 02:48 UTC.
Position N 26°45' W 080°03'.

Length 92 m; draft 4.2 m.

Type: Pleasure craft. MMSI: 319107400.

Date/timePositionNaut miles runAvg speedWind from/ knotsBaromVisibWave heightAir tempDewpointWater temp
2018-Apr-17 11:16N 26°45' W 080°03'  
2018-Apr-10 21:37N 26°45' W 080°03'10410.7
2018-Apr-10 11:55N 26°04' W 078°16'512.2
2018-Apr-10 11:30N 26°02' W 078°11'611.7
2018-Apr-10 11:00N 25°60' W 078°05'611.1
2018-Apr-10 10:30N 25°57' W 077°59'43 9.9
2018-Apr-10 06:07N 25°21' W 077°34'310.6
2018-Apr-10 05:52N 25°18' W 077°34'411.0
2018-Apr-10 05:30N 25°14' W 077°34'  

Dump ship's entire track history